createdAt,value
2023-01-17T00:02:21.009Z,97677.44
2023-01-17T00:05:06.584Z,97676.50
2023-01-17T00:07:52.533Z,97675.56
2023-01-17T00:10:22.601Z,97668.72
2023-01-17T00:12:52.470Z,97669.50
2023-01-17T00:15:20.592Z,97661.00
2023-01-17T00:17:48.950Z,97655.06
2023-01-17T00:20:36.775Z,97641.50
2023-01-17T00:23:37.175Z,97636.31
2023-01-17T00:26:17.148Z,97627.00
2023-01-17T00:28:44.882Z,97626.06
2023-01-17T00:31:14.012Z,97619.31
2023-01-17T00:33:41.221Z,97619.25
2023-01-17T00:36:09.097Z,97618.41
2023-01-17T00:38:38.596Z,97617.59
2023-01-17T00:41:10.787Z,97612.47
2023-01-17T00:43:57.075Z,97607.28
2023-01-17T00:46:42.845Z,97611.56
2023-01-17T00:49:28.969Z,97614.06
2023-01-17T00:52:14.270Z,97612.31
2023-01-17T00:54:59.861Z,97608.88
2023-01-17T00:57:45.424Z,97614.97
2023-01-17T01:00:31.523Z,97601.38
2023-01-17T01:03:17.104Z,97604.81
2023-01-17T01:06:02.660Z,97595.41
2023-01-17T01:08:49.656Z,97595.25
2023-01-17T01:11:39.600Z,97588.47
2023-01-17T01:14:29.398Z,97574.03
2023-01-17T01:17:15.246Z,97576.56
2023-01-17T01:20:00.912Z,97575.69
2023-01-17T01:22:46.728Z,97575.63
2023-01-17T01:25:32.208Z,97578.25
2023-01-17T01:28:31.836Z,97559.66
2023-01-17T01:31:24.566Z,97568.09
2023-01-17T01:33:53.006Z,97559.59
2023-01-17T01:36:20.790Z,97549.38
2023-01-17T01:38:48.438Z,97538.34
2023-01-17T01:41:15.537Z,97525.50
2023-01-17T01:43:47.356Z,97532.41
2023-01-17T01:46:35.154Z,97532.34
2023-01-17T01:49:24.930Z,97521.38
2023-01-17T01:51:59.200Z,97505.22
2023-01-17T01:54:32.715Z,97506.03
2023-01-17T01:57:04.028Z,97497.56
2023-01-17T01:59:34.168Z,97498.41
2023-01-17T02:02:01.842Z,97495.09
2023-01-17T02:04:29.385Z,97494.22
2023-01-17T02:07:03.763Z,97474.03
2023-01-17T02:09:30.854Z,97486.53
2023-01-17T02:11:58.399Z,97477.97
2023-01-17T02:14:25.634Z,97478.78
2023-01-17T02:17:17.813Z,97477.94
2023-01-17T02:20:22.362Z,97473.66
2023-01-17T02:23:07.814Z,97466.09
2023-01-17T02:25:52.904Z,97456.69
2023-01-17T02:28:28.917Z,97463.47
2023-01-17T02:31:04.803Z,97462.59
2023-01-17T02:33:57.518Z,97456.63
2023-01-17T02:36:32.092Z,97437.91
2023-01-17T02:39:20.571Z,97428.53
2023-01-17T02:42:03.147Z,97426.03
2023-01-17T02:44:30.169Z,97418.47
2023-01-17T02:46:59.558Z,97420.88
2023-01-17T02:49:30.239Z,97422.59
2023-01-17T02:52:27.219Z,97421.75
2023-01-17T02:55:16.061Z,97428.53
2023-01-17T02:58:07.069Z,97431.97
2023-01-17T03:00:49.081Z,97432.00
2023-01-17T03:03:48.052Z,97437.13
2023-01-17T03:06:29.381Z,97435.38
2023-01-17T03:08:56.362Z,97430.34
2023-01-17T03:11:23.522Z,97438.72
2023-01-17T03:13:55.405Z,97433.72
2023-01-17T03:16:24.969Z,97437.91
2023-01-17T03:18:54.006Z,97437.06
2023-01-17T03:21:22.011Z,97437.06
2023-01-17T03:23:49.424Z,97433.63
2023-01-17T03:26:16.858Z,97428.53
2023-01-17T03:28:44.006Z,97426.91
2023-01-17T03:31:15.413Z,97419.97
2023-01-17T03:33:42.523Z,97425.06
2023-01-17T03:36:10.107Z,97415.78
2023-01-17T03:38:37.620Z,97418.31
2023-01-17T03:41:05.932Z,97403.88
2023-01-17T03:43:33.065Z,97402.97
2023-01-17T03:46:08.695Z,97387.66
2023-01-17T03:48:35.788Z,97387.66
2023-01-17T03:51:02.973Z,97380.00
2023-01-17T03:53:30.094Z,97384.22
2023-01-17T03:55:57.121Z,97387.66
2023-01-17T03:58:24.174Z,97382.63
2023-01-17T04:00:51.255Z,97385.91
2023-01-17T04:03:18.259Z,97387.56
2023-01-17T04:05:45.421Z,97380.72
2023-01-17T04:08:12.507Z,97383.34
2023-01-17T04:10:39.566Z,97384.94
2023-01-17T04:13:06.778Z,97389.19
2023-01-17T04:15:34.550Z,97389.25
2023-01-17T04:18:01.889Z,97394.28
2023-01-17T04:20:40.141Z,97400.16
2023-01-17T04:23:07.619Z,97400.09
2023-01-17T04:25:34.789Z,97399.22
2023-01-17T04:28:03.973Z,97397.53
2023-01-17T04:30:32.379Z,97388.13
2023-01-17T04:32:59.758Z,97386.38
2023-01-17T04:35:27.103Z,97370.25
2023-01-17T04:37:54.175Z,97370.34
2023-01-17T04:40:21.344Z,97382.22
2023-01-17T04:42:48.747Z,97362.75
2023-01-17T04:45:16.158Z,97375.44
2023-01-17T04:47:43.266Z,97373.69
2023-01-17T04:50:13.104Z,97361.78
2023-01-17T04:52:40.235Z,97358.44
2023-01-17T04:55:08.251Z,97366.88
2023-01-17T04:57:35.346Z,97380.56
2023-01-17T05:00:04.957Z,97387.41
2023-01-17T05:02:32.169Z,97389.13
2023-01-17T05:04:59.285Z,97377.19
2023-01-17T05:07:26.325Z,97389.09
2023-01-17T05:09:53.356Z,97377.28
2023-01-17T05:12:20.482Z,97377.19
2023-01-17T05:14:47.553Z,97375.53
2023-01-17T05:17:14.714Z,97368.66
2023-01-17T05:19:41.760Z,97375.44
2023-01-17T05:22:17.188Z,97375.53
2023-01-17T05:24:45.894Z,97370.41
2023-01-17T05:27:13.249Z,97381.44
2023-01-17T05:29:40.448Z,97382.28
2023-01-17T05:32:08.242Z,97377.19
2023-01-17T05:34:35.319Z,97370.41
2023-01-17T05:37:02.491Z,97367.06
2023-01-17T05:39:31.234Z,97377.28
2023-01-17T05:41:59.484Z,97375.53
2023-01-17T05:44:27.869Z,97377.19
2023-01-17T05:46:55.568Z,97377.19
2023-01-17T05:49:22.620Z,97388.31
2023-01-17T05:51:50.242Z,97377.28
2023-01-17T05:54:17.931Z,97385.75
2023-01-17T05:56:44.936Z,97376.41
2023-01-17T05:59:14.083Z,97390.75
2023-01-17T06:01:41.439Z,97380.63
2023-01-17T06:04:08.574Z,97372.09
2023-01-17T06:06:36.394Z,97378.00
2023-01-17T06:09:03.820Z,97370.59
2023-01-17T06:11:30.757Z,97373.88
2023-01-17T06:13:57.809Z,97378.09
2023-01-17T06:16:24.956Z,97379.81
2023-01-17T06:18:52.094Z,97382.38
2023-01-17T06:21:19.992Z,97379.03
2023-01-17T06:23:47.119Z,97386.75
2023-01-17T06:26:14.339Z,97372.41
2023-01-17T06:28:41.362Z,97367.41
2023-01-17T06:31:09.564Z,97377.63
2023-01-17T06:33:36.942Z,97389.50
2023-01-17T06:36:04.533Z,97391.16
2023-01-17T06:38:31.834Z,97385.41
2023-01-17T06:41:00.676Z,97388.81
2023-01-17T06:43:29.057Z,97403.28
2023-01-17T06:45:56.251Z,97400.81
2023-01-17T06:48:23.357Z,97401.69
2023-01-17T06:50:50.444Z,97402.63
2023-01-17T06:53:17.718Z,97401.03
2023-01-17T06:55:44.852Z,97408.63
2023-01-17T06:58:12.133Z,97406.16
2023-01-17T07:00:40.934Z,97408.78
2023-01-17T07:03:19.355Z,97410.44
2023-01-17T07:05:46.533Z,97419.00
2023-01-17T07:08:14.268Z,97420.75
2023-01-17T07:10:41.367Z,97408.88
2023-01-17T07:13:08.729Z,97413.09
2023-01-17T07:15:35.775Z,97414.75
2023-01-17T07:18:04.169Z,97414.72
2023-01-17T07:20:31.265Z,97416.53
2023-01-17T07:22:58.539Z,97424.84
2023-01-17T07:25:27.721Z,97434.16
2023-01-17T07:27:57.784Z,97435.81
2023-01-17T07:30:25.197Z,97441.84
2023-01-17T07:32:53.633Z,97442.69
2023-01-17T07:35:22.000Z,97440.94
2023-01-17T07:37:50.152Z,97437.53
2023-01-17T07:40:18.496Z,97435.81
2023-01-17T07:42:45.999Z,97437.53
2023-01-17T07:45:15.000Z,97437.53
2023-01-17T07:47:42.260Z,97442.66
2023-01-17T07:50:10.009Z,97439.34
2023-01-17T07:52:37.068Z,97435.91
2023-01-17T07:55:05.281Z,97437.66
2023-01-17T07:57:33.105Z,97434.25
2023-01-17T08:00:00.157Z,97434.25
2023-01-17T08:02:27.274Z,97435.91
2023-01-17T08:04:54.276Z,97434.31
2023-01-17T08:07:21.511Z,97438.59
2023-01-17T08:09:50.723Z,97446.19
2023-01-17T08:12:17.970Z,97437.66
2023-01-17T08:14:45.174Z,97441.09
2023-01-17T08:17:14.901Z,97451.22
2023-01-17T08:19:44.472Z,97452.91
2023-01-17T08:22:12.462Z,97453.75
2023-01-17T08:24:39.586Z,97460.56
2023-01-17T08:27:06.860Z,97462.22
2023-01-17T08:29:33.964Z,97464.78
2023-01-17T08:32:01.070Z,97441.41
2023-01-17T08:34:28.385Z,97474.16
2023-01-17T08:36:55.723Z,97472.44
2023-01-17T08:39:22.802Z,97473.25
2023-01-17T08:41:49.919Z,97478.28
2023-01-17T08:44:17.110Z,97480.84
2023-01-17T08:46:44.408Z,97483.28
2023-01-17T08:49:12.820Z,97490.03
2023-01-17T08:51:40.573Z,97481.41
2023-01-17T08:54:09.734Z,97474.56
2023-01-17T08:56:36.881Z,97482.91
2023-01-17T08:59:04.112Z,97496.31
2023-01-17T09:01:31.211Z,97492.78
2023-01-17T09:03:58.423Z,97489.28
2023-01-17T09:06:25.504Z,97490.88
2023-01-17T09:08:54.980Z,97494.22
2023-01-17T09:11:22.148Z,97504.44
2023-01-17T09:13:49.249Z,97502.63
2023-01-17T09:16:16.463Z,97506.06
2023-01-17T09:18:43.599Z,97502.63
2023-01-17T09:21:18.308Z,97507.75
2023-01-17T09:23:46.025Z,97502.53
2023-01-17T09:26:30.135Z,97507.66
2023-01-17T09:28:58.911Z,97516.13
2023-01-17T09:31:27.345Z,97517.72
2023-01-17T09:33:55.636Z,97509.09
2023-01-17T09:36:23.458Z,97515.88
2023-01-17T09:38:56.821Z,97504.66
2023-01-17T09:41:56.084Z,97517.31
2023-01-17T09:44:47.285Z,97512.13
2023-01-17T09:47:37.665Z,97515.41
2023-01-17T09:50:15.555Z,97523.06
2023-01-17T09:52:43.387Z,97495.31
2023-01-17T09:55:18.309Z,97520.44
2023-01-17T09:57:51.224Z,97528.91
2023-01-17T10:00:33.502Z,97534.03
2023-01-17T10:03:39.083Z,97525.38
2023-01-17T10:06:31.914Z,97523.63
2023-01-17T10:09:35.014Z,97526.91
2023-01-17T10:12:18.959Z,97524.31
2023-01-17T10:15:21.787Z,97528.34
2023-01-17T10:18:21.777Z,97531.72
2023-01-17T10:21:23.833Z,97528.06
2023-01-17T10:24:16.511Z,97534.81
2023-01-17T10:26:53.736Z,97533.72
2023-01-17T10:29:21.348Z,97528.63
2023-01-17T10:32:00.493Z,97531.88
2023-01-17T10:34:42.869Z,97524.13
2023-01-17T10:37:41.179Z,97530.84
2023-01-17T10:40:22.627Z,97530.66
2023-01-17T10:42:57.837Z,97531.47
2023-01-17T10:45:29.241Z,97539.94
2023-01-17T10:48:05.093Z,97531.28
2023-01-17T10:50:53.567Z,97531.97
2023-01-17T10:53:34.536Z,97526.66
2023-01-17T10:56:02.436Z,97525.66
2023-01-17T10:58:29.564Z,97531.44
2023-01-17T11:01:18.033Z,97526.94
2023-01-17T11:03:51.263Z,97522.41
2023-01-17T11:06:24.210Z,97530.59
2023-01-17T11:08:54.524Z,97529.47
2023-01-17T11:11:23.536Z,97521.75
2023-01-17T11:13:52.741Z,97519.88
2023-01-17T11:16:25.488Z,97513.06
2023-01-17T11:19:11.006Z,97506.16
2023-01-17T11:21:40.530Z,97523.13
2023-01-17T11:24:19.423Z,97524.78
2023-01-17T11:26:49.624Z,97530.75
2023-01-17T11:29:37.332Z,97529.91
2023-01-17T11:32:22.580Z,97523.13
2023-01-17T11:35:18.311Z,97519.97
2023-01-17T11:37:59.511Z,97528.53
2023-01-17T11:40:49.938Z,97532.84
2023-01-17T11:43:23.020Z,97535.53
2023-01-17T11:46:04.720Z,97541.47
2023-01-17T11:48:37.717Z,97550.03
2023-01-17T11:51:16.923Z,97541.53
2023-01-17T11:53:48.871Z,97544.84
2023-01-17T11:56:21.343Z,97547.47
2023-01-17T11:58:48.554Z,97539.78
2023-01-17T12:01:18.355Z,97543.91
2023-01-17T12:04:12.409Z,97543.16
2023-01-17T12:06:58.610Z,97546.44
2023-01-17T12:09:32.162Z,97539.38
2023-01-17T12:12:48.801Z,97534.94
2023-01-17T12:15:21.612Z,97533.19
2023-01-17T12:18:09.187Z,97538.25
2023-01-17T12:20:36.137Z,97542.50
2023-01-17T12:23:18.262Z,97556.28
2023-01-17T12:25:48.280Z,97555.44
2023-01-17T12:28:46.522Z,97564.72
2023-01-17T12:31:24.821Z,97553.47
2023-01-17T12:33:57.821Z,97556.84
2023-01-17T12:36:49.641Z,97559.28
2023-01-17T12:39:22.593Z,97556.69
2023-01-17T12:41:49.636Z,97550.66
2023-01-17T12:44:20.163Z,97558.41
2023-01-17T12:46:54.184Z,97565.00
2023-01-17T12:49:30.135Z,97566.56
2023-01-17T12:52:05.209Z,97558.94
2023-01-17T12:54:38.523Z,97570.03
2023-01-17T12:57:27.694Z,97566.78
2023-01-17T13:00:12.746Z,97573.59
2023-01-17T13:02:58.361Z,97577.84
2023-01-17T13:05:37.467Z,97575.38
2023-01-17T13:08:07.039Z,97575.38
2023-01-17T13:10:46.394Z,97567.09
2023-01-17T13:13:24.279Z,97575.66
2023-01-17T13:16:14.676Z,97584.34
2023-01-17T13:18:45.261Z,97592.13
2023-01-17T13:21:30.303Z,97594.69
2023-01-17T13:24:02.169Z,97589.56
2023-01-17T13:26:56.348Z,97590.63
2023-01-17T13:30:03.248Z,97598.22
2023-01-17T13:32:55.593Z,97607.69
2023-01-17T13:35:40.089Z,97603.53
2023-01-17T13:38:15.921Z,97615.38
2023-01-17T13:40:58.655Z,97621.38
2023-01-17T13:43:30.747Z,97622.28
2023-01-17T13:46:01.549Z,97630.81
2023-01-17T13:48:41.036Z,97634.41
2023-01-17T13:51:11.912Z,97643.75
2023-01-17T13:53:39.012Z,97640.41
2023-01-17T13:56:31.714Z,97649.75
2023-01-17T13:59:03.562Z,97638.63
2023-01-17T14:01:38.676Z,97651.47
2023-01-17T14:04:08.494Z,97641.28
2023-01-17T14:06:37.340Z,97653.94
2023-01-17T14:09:27.967Z,97655.69
2023-01-17T14:12:14.269Z,97657.38
2023-01-17T14:14:41.923Z,97661.66
2023-01-17T14:17:25.741Z,97673.63
2023-01-17T14:20:01.335Z,97672.03
2023-01-17T14:22:31.783Z,97671.91
2023-01-17T14:25:20.148Z,97682.25
2023-01-17T14:27:55.042Z,97695.06
2023-01-17T14:30:34.040Z,97695.97
2023-01-17T14:33:22.566Z,97701.97
2023-01-17T14:35:56.311Z,97714.78
2023-01-17T14:38:34.085Z,97718.22
2023-01-17T14:41:09.752Z,97718.22
2023-01-17T14:43:41.043Z,97728.47
2023-01-17T14:46:31.399Z,97728.47
2023-01-17T14:49:20.809Z,97730.31
2023-01-17T14:52:02.484Z,97731.22
2023-01-17T14:54:29.954Z,97725.38
2023-01-17T14:57:26.934Z,97732.19
2023-01-17T15:00:11.360Z,97739.09
2023-01-17T15:02:44.168Z,97745.88
2023-01-17T15:05:16.891Z,97741.69
2023-01-17T15:07:47.022Z,97737.66
2023-01-17T15:10:17.788Z,97751.19
2023-01-17T15:12:47.250Z,97754.59
2023-01-17T15:15:44.155Z,97756.34
2023-01-17T15:18:14.144Z,97769.25
2023-01-17T15:21:09.221Z,97766.78
2023-01-17T15:23:44.423Z,97761.72
2023-01-17T15:26:14.039Z,97775.34
2023-01-17T15:28:42.274Z,97775.44
2023-01-17T15:31:37.916Z,97782.22
2023-01-17T15:34:07.656Z,97785.69
2023-01-17T15:36:35.766Z,97772.38
2023-01-17T15:39:15.173Z,97796.00
2023-01-17T15:41:42.276Z,97808.91
2023-01-17T15:44:33.395Z,97810.84
2023-01-17T15:47:30.405Z,97809.19
2023-01-17T15:49:58.329Z,97813.50
2023-01-17T15:52:25.673Z,97822.06
2023-01-17T15:54:58.964Z,97836.59
2023-01-17T15:57:37.816Z,97837.44
2023-01-17T16:00:20.458Z,97831.47
2023-01-17T16:02:55.423Z,97841.81
2023-01-17T16:05:23.137Z,97846.03
2023-01-17T16:07:54.761Z,97852.94
2023-01-17T16:10:31.860Z,97864.03
2023-01-17T16:12:59.964Z,97863.19
2023-01-17T16:15:28.301Z,97870.06
2023-01-17T16:18:06.904Z,97870.13
2023-01-17T16:21:01.439Z,97874.38
2023-01-17T16:23:28.763Z,97877.00
2023-01-17T16:25:55.877Z,97878.75
2023-01-17T16:28:23.246Z,97878.75
2023-01-17T16:30:50.314Z,97882.25
2023-01-17T16:33:17.455Z,97885.69
2023-01-17T16:35:44.564Z,97889.06
2023-01-17T16:38:14.280Z,97884.81
2023-01-17T16:40:47.122Z,97874.00
2023-01-17T16:43:17.339Z,97882.38
2023-01-17T16:45:46.392Z,97889.28
2023-01-17T16:48:14.097Z,97887.56
2023-01-17T16:50:48.191Z,97882.59
2023-01-17T16:53:15.897Z,97880.94
2023-01-17T16:55:44.157Z,97879.28
2023-01-17T16:58:11.560Z,97874.31
2023-01-17T17:00:40.568Z,97871.78
2023-01-17T17:03:07.629Z,97879.50
2023-01-17T17:05:34.925Z,97877.03
2023-01-17T17:08:02.061Z,97881.34
2023-01-17T17:10:30.197Z,97879.75
2023-01-17T17:12:57.508Z,97883.28
2023-01-17T17:15:24.649Z,97884.13
2023-01-17T17:17:52.700Z,97878.34
2023-01-17T17:20:20.208Z,97885.16
2023-01-17T17:22:51.713Z,97888.63
2023-01-17T17:25:19.559Z,97887.81
2023-01-17T17:27:46.614Z,97880.19
2023-01-17T17:30:14.090Z,97899.00
2023-01-17T17:32:41.216Z,97883.03
2023-01-17T17:35:08.805Z,97892.22
2023-01-17T17:37:36.032Z,97885.44
2023-01-17T17:40:04.502Z,97889.78
2023-01-17T17:42:31.761Z,97890.63
2023-01-17T17:44:58.786Z,97887.31
2023-01-17T17:47:25.908Z,97889.88
2023-01-17T17:49:52.972Z,97888.22
2023-01-17T17:52:20.083Z,97889.13
2023-01-17T17:54:48.536Z,97877.28
2023-01-17T17:57:15.630Z,97890.97
2023-01-17T17:59:42.648Z,97892.72
2023-01-17T18:02:11.473Z,97879.19
2023-01-17T18:04:39.072Z,97884.28
2023-01-17T18:07:06.297Z,97892.03
2023-01-17T18:09:33.347Z,97898.94
2023-01-17T18:12:00.536Z,97910.97
2023-01-17T18:14:27.641Z,97903.34
2023-01-17T18:16:54.948Z,97905.03
2023-01-17T18:19:24.465Z,97903.34
2023-01-17T18:21:52.638Z,97899.09
2023-01-17T18:24:22.034Z,97917.88
2023-01-17T18:26:51.619Z,97923.88
2023-01-17T18:29:24.416Z,97929.00
2023-01-17T18:31:52.653Z,97925.66
2023-01-17T18:34:24.608Z,97946.09
2023-01-17T18:36:52.280Z,97954.66
2023-01-17T18:39:22.023Z,97959.81
2023-01-17T18:41:49.716Z,97966.72
2023-01-17T18:44:18.071Z,97965.03
2023-01-17T18:46:48.092Z,97970.16
2023-01-17T18:49:16.650Z,97965.09
2023-01-17T18:51:46.860Z,97976.22
2023-01-17T18:54:13.840Z,97984.84
2023-01-17T18:56:42.625Z,97995.94
2023-01-17T18:59:12.978Z,97996.78
2023-01-17T19:01:42.446Z,97996.84
2023-01-17T19:04:10.377Z,98009.66
2023-01-17T19:06:43.167Z,97999.53
2023-01-17T19:09:11.867Z,98017.38
2023-01-17T19:11:39.662Z,98019.97
2023-01-17T19:14:07.247Z,98021.75
2023-01-17T19:16:39.329Z,98028.56
2023-01-17T19:19:13.864Z,98035.38
2023-01-17T19:21:41.071Z,98035.44
2023-01-17T19:24:10.262Z,98046.47
2023-01-17T19:26:37.368Z,98049.13
2023-01-17T19:29:05.378Z,98041.50
2023-01-17T19:31:36.391Z,98048.34
2023-01-17T19:34:03.635Z,98040.72
2023-01-17T19:36:35.926Z,98049.22
2023-01-17T19:39:06.092Z,98051.81
2023-01-17T19:41:41.299Z,98057.75
2023-01-17T19:44:10.567Z,98052.69
2023-01-17T19:46:38.332Z,98065.41
2023-01-17T19:49:08.333Z,98062.88
2023-01-17T19:51:36.475Z,98071.41
2023-01-17T19:54:05.331Z,98078.22
2023-01-17T19:56:32.487Z,98071.47
2023-01-17T19:59:01.828Z,98073.16
2023-01-17T20:01:32.304Z,98069.78
2023-01-17T20:04:00.052Z,98069.88
2023-01-17T20:06:30.621Z,98066.56
2023-01-17T20:08:57.928Z,98071.72
2023-01-17T20:11:28.830Z,98068.38
2023-01-17T20:13:57.820Z,98053.22
2023-01-17T20:16:26.567Z,98061.72
2023-01-17T20:18:53.867Z,98063.47
2023-01-17T20:21:24.186Z,98062.69
2023-01-17T20:23:53.181Z,98068.69
2023-01-17T20:26:29.841Z,98083.13
2023-01-17T20:28:57.317Z,98089.16
2023-01-17T20:31:25.896Z,98084.09
2023-01-17T20:33:55.300Z,98099.41
2023-01-17T20:36:25.185Z,98096.06
2023-01-17T20:38:53.392Z,98104.56
2023-01-17T20:41:34.727Z,98107.16
2023-01-17T20:44:03.282Z,98105.47
2023-01-17T20:46:35.602Z,98114.81
2023-01-17T20:49:05.634Z,98119.06
2023-01-17T20:51:38.753Z,98114.06
2023-01-17T20:54:08.943Z,98116.59
2023-01-17T20:56:37.855Z,98109.81
2023-01-17T20:59:08.835Z,98105.63
2023-01-17T21:01:37.316Z,98110.75
2023-01-17T21:04:10.341Z,98111.59
2023-01-17T21:06:40.115Z,98108.25
2023-01-17T21:09:09.135Z,98100.66
2023-01-17T21:11:37.276Z,98103.19
2023-01-17T21:14:06.041Z,98103.25
2023-01-17T21:16:34.428Z,98104.13
2023-01-17T21:19:02.043Z,98115.16
2023-01-17T21:21:29.874Z,98104.16
2023-01-17T21:23:59.334Z,98105.88
2023-01-17T21:26:28.746Z,98108.41
2023-01-17T21:28:56.014Z,98110.13
2023-01-17T21:31:29.639Z,98111.81
2023-01-17T21:33:59.251Z,98111.84
2023-01-17T21:36:29.265Z,98120.38
2023-01-17T21:38:58.349Z,98127.16
2023-01-17T21:41:30.531Z,98135.66
2023-01-17T21:44:01.740Z,98133.09
2023-01-17T21:46:29.915Z,98135.63
2023-01-17T21:48:57.935Z,98135.66
2023-01-17T21:51:45.636Z,98128.91
2023-01-17T21:54:12.954Z,98144.19
2023-01-17T21:56:58.523Z,98153.53
2023-01-17T21:59:25.725Z,98162.00
2023-01-17T22:01:52.915Z,98169.63
2023-01-17T22:04:20.271Z,98178.06
2023-01-17T22:06:47.566Z,98170.44
2023-01-17T22:09:15.324Z,98183.16
2023-01-17T22:11:42.481Z,98185.66
2023-01-17T22:14:09.883Z,98191.59
2023-01-17T22:16:37.097Z,98196.66
2023-01-17T22:19:04.605Z,98200.03
2023-01-17T22:21:31.917Z,98196.63
2023-01-17T22:24:00.525Z,98182.22
2023-01-17T22:26:30.283Z,98189.00
2023-01-17T22:29:00.452Z,98184.78
2023-01-17T22:31:28.383Z,98174.63
2023-01-17T22:33:58.146Z,98169.53
2023-01-17T22:36:26.127Z,98171.22
2023-01-17T22:38:53.897Z,98161.88
2023-01-17T22:41:25.425Z,98155.06
2023-01-17T22:43:56.021Z,98151.72
2023-01-17T22:46:27.205Z,98140.72
2023-01-17T22:48:55.803Z,98139.00
2023-01-17T22:51:24.894Z,98126.38
2023-01-17T22:53:57.176Z,98136.53
2023-01-17T22:56:29.975Z,98131.41
2023-01-17T22:59:02.063Z,98142.47
2023-01-17T23:01:35.530Z,98144.19
2023-01-17T23:04:04.554Z,98134.03
2023-01-17T23:06:37.970Z,98139.13
2023-01-17T23:09:10.925Z,98154.41
2023-01-17T23:11:43.961Z,98129.88
2023-01-17T23:14:27.523Z,98153.59
2023-01-17T23:17:21.780Z,98155.28
2023-01-17T23:19:54.803Z,98157.84
2023-01-17T23:22:27.811Z,98154.47
2023-01-17T23:25:00.603Z,98149.38
2023-01-17T23:27:57.540Z,98149.38
2023-01-17T23:30:35.891Z,98132.44
2023-01-17T23:33:07.181Z,98144.31
2023-01-17T23:35:41.544Z,98138.38
2023-01-17T23:38:34.809Z,98139.22
2023-01-17T23:41:23.233Z,98123.97
2023-01-17T23:43:59.259Z,98139.22
2023-01-17T23:46:27.212Z,98137.50
2023-01-17T23:48:55.334Z,98135.00
2023-01-17T23:51:22.755Z,98140.06
2023-01-17T23:53:51.168Z,98128.22
2023-01-17T23:56:23.835Z,98137.50
2023-01-17T23:58:50.943Z,98118.88
